ロングイェールビーン の空港の天気 - METARとTAF

スヴァールバル空港 ( ENSB / LYR ) - スヴァールバル諸島・ヤンマイエン島 ロングイェールビーン
飛行場実況気象(Metar)
観測時間02/01 15:20 CET (02/01 14:20 UTC)
風向・風速東南東 7m/s
視程10km以上
天気現象
少しの雲 雲底高度 910m
気温-10℃
湿度73%
気圧1013hPa
METARENSB 011420Z 11013KT 9999 FEW030 M10/M14 Q1013 RMK WIND 1400FT 12018KT
過去の天気等 Google飛行場航空写真 Wunderground天気予報

過去48時間のMETAR

飛行場予報(TAF)
発表時間: -
TAF ENSB 0112/0212 12012KT 9999 FEW020 SCT040